Time;durP1;ratioP1;P1;durP2;ratioP2;P2;SDS_P1;SDS_P2;PMS_P1;PMS_P2;Temp;Humidity;BMP_temperature;BMP_pressure;BME280_temperature;BME280_humidity;BME280_pressure;Samples;Min_cycle;Max_cycle;Signal;HPM_P1;HPM_P2
2022/10/25 00:01:19;;;;;;;;;;;;;;;;;;4985567;28;20066;-82
2022/10/25 00:03:45;;;;;;;;;;;;;;;;;;4986272;28;19953;-83
2022/10/25 00:06:12;;;;;;;;;;;;;;;;;;4968775;28;20008;-82
2022/10/25 00:08:38;;;;;;;;;;;;;;;;;;4989744;28;19946;-82
2022/10/25 00:11:04;;;;;;;;;;;;;;;;;;4988915;28;19924;-81
2022/10/25 00:13:30;;;;;;;;;;;;;;;;;;4988728;28;19972;-82
2022/10/25 00:15:56;;;;;;;;;;;;;;;;;;4986680;28;19953;-82
2022/10/25 00:18:23;;;;;;;;;;;;;;;;;;4979899;28;20359;-82
2022/10/25 00:20:49;;;;;;;;;;;;;;;;;;4991293;28;19957;-82
2022/10/25 00:23:15;;;;;;;;;;;;;;;;;;4979746;28;19914;-82
2022/10/25 00:25:41;;;;;;;;;;;;;;;;;;4974392;28;19952;-83
2022/10/25 00:28:07;;;;;;;;;;;;;;;;;;4986483;28;19953;-83
2022/10/25 00:30:33;;;;;;;;;;;;;;;;;;4987554;28;20389;-84
2022/10/25 00:33:00;;;;;;;;;;;;;;;;;;4986024;28;19965;-83
2022/10/25 00:35:26;;;;;;;;;;;;;;;;;;4987074;28;19966;-84
2022/10/25 00:37:52;;;;;;;;;;;;;;;;;;4969128;28;20025;-83
2022/10/25 00:40:18;;;;;;;;;;;;;;;;;;4987316;28;20348;-83
2022/10/25 00:42:44;;;;;;;;;;;;;;;;;;4973035;28;20056;-83
2022/10/25 00:45:10;;;;;;;;;;;;;;;;;;4987771;28;19946;-83
2022/10/25 00:47:37;;;;;;;;;;;;;;;;;;4987391;28;19985;-83
2022/10/25 00:50:03;;;;;;;;;;;;;;;;;;4982792;28;20421;-83
2022/10/25 00:52:29;;;;;;;;;;;;;;;;;;4971229;28;19965;-84
2022/10/25 00:54:55;;;;;;;;;;;;;;;;;;4968813;28;20652;-82
2022/10/25 00:57:21;;;;;;;;;;;;;;;;;;4968631;28;19961;-83
2022/10/25 00:59:48;;;;;;;;;;;;;;;;;;4987647;28;19961;-83
2022/10/25 01:02:14;;;;;;;;;;;;;;;;;;4983405;28;19960;-83
2022/10/25 01:04:40;;;;;;;;;;;;;;;;;;4984647;28;20021;-84
2022/10/25 01:07:06;;;;;;;;;;;;;;;;;;4985807;28;20295;-83
2022/10/25 01:09:32;;;;;;;;;;;;;;;;;;4973611;28;20326;-83
2022/10/25 01:11:59;;;;;;;;;;;;;;;;;;4970350;28;19952;-82
2022/10/25 01:14:25;;;;;;;;;;;;;;;;;;4974934;28;19969;-83
2022/10/25 01:16:51;;;;;;;;;;;;;;;;;;4986855;28;19953;-83
2022/10/25 01:19:18;;;;;;;;;;;;;;;;;;4967765;28;21539;-83
2022/10/25 01:21:44;;;;;;;;;;;;;;;;;;4978622;28;19958;-83
2022/10/25 01:24:10;;;;;;;;;;;;;;;;;;4966622;28;19953;-81
2022/10/25 01:26:36;;;;;;;;;;;;;;;;;;4977353;28;19964;-82
2022/10/25 01:29:02;;;;;;;;;;;;;;;;;;4986833;28;19957;-83
2022/10/25 01:31:29;;;;;;;;;;;;;;;;;;4986034;28;20097;-83
2022/10/25 01:33:55;;;;;;;;;;;;;;;;;;4966999;28;19961;-82
2022/10/25 01:36:21;;;;;;;;;;;;;;;;;;4982355;28;19964;-84
2022/10/25 01:38:47;;;;;;;;;;;;;;;;;;4951983;28;20379;-84
2022/10/25 01:41:13;;;;;;;;;;;;;;;;;;4968910;28;19968;-84
2022/10/25 01:43:40;;;;;;;;;;;;;;;;;;4987991;28;19968;-84
2022/10/25 01:46:06;;;;;;;;;;;;;;;;;;4972070;28;20354;-84
2022/10/25 01:48:32;;;;;;;;;;;;;;;;;;4968794;28;19965;-83
2022/10/25 01:50:58;;;;;;;;;;;;;;;;;;4986231;28;19957;-82
2022/10/25 01:53:24;;;;;;;;;;;;;;;;;;4988095;28;19968;-84
2022/10/25 01:55:50;;;;;;;;;;;;;;;;;;4992633;28;19949;-84
2022/10/25 01:58:17;;;;;;;;;;;;;;;;;;4959807;28;21436;-83
2022/10/25 02:00:43;;;;;;;;;;;;;;;;;;4987210;28;19960;-83
2022/10/25 02:03:09;;;;;;;;;;;;;;;;;;4982096;28;19914;-83
2022/10/25 02:05:35;;;;;;;;;;;;;;;;;;4976572;28;19957;-84
2022/10/25 02:08:01;;;;;;;;;;;;;;;;;;4953103;28;19952;-84
2022/10/25 02:10:28;;;;;;;;;;;;;;;;;;4953488;28;20010;-83
2022/10/25 02:12:54;;;;;;;;;;;;;;;;;;4971716;28;19944;-82
2022/10/25 02:15:20;;;;;;;;;;;;;;;;;;4973490;28;19953;-83
2022/10/25 02:17:46;;;;;;;;;;;;;;;;;;4984873;28;19962;-82
2022/10/25 02:20:12;;;;;;;;;;;;;;;;;;4967256;28;19961;-82
2022/10/25 02:22:38;;;;;;;;;;;;;;;;;;4976561;28;19960;-82
2022/10/25 02:25:05;;;;;;;;;;;;;;;;;;4985544;28;20057;-82
2022/10/25 02:27:31;;;;;;;;;;;;;;;;;;4972799;28;19945;-82
2022/10/25 02:29:57;;;;;;;;;;;;;;;;;;4986410;28;19969;-82
2022/10/25 02:32:23;;;;;;;;;;;;;;;;;;4984367;28;19968;-82
2022/10/25 02:34:49;;;;;;;;;;;;;;;;;;4986431;28;19968;-82
2022/10/25 02:37:16;;;;;;;;;;;;;;;;;;4979413;28;19957;-82
2022/10/25 02:39:42;;;;;;;;;;;;;;;;;;4974242;28;20004;-83
2022/10/25 02:42:08;;;;;;;;;;;;;;;;;;4984571;28;19957;-82
2022/10/25 02:44:34;;;;;;;;;;;;;;;;;;4969096;28;20056;-82
2022/10/25 02:47:00;;;;;;;;;;;;;;;;;;4967238;28;20459;-81
2022/10/25 02:49:27;;;;;;;;;;;;;;;;;;4990735;28;19945;-81
2022/10/25 02:51:53;;;;;;;;;;;;;;;;;;4967799;28;20017;-79
2022/10/25 02:54:19;;;;;;;;;;;;;;;;;;4983736;28;19972;-81
2022/10/25 02:56:45;;;;;;;;;;;;;;;;;;4967846;28;19961;-82
2022/10/25 02:59:12;;;;;;;;;;;;;;;;;;4965517;28;19957;-81
2022/10/25 03:01:38;;;;;;;;;;;;;;;;;;4967715;28;19957;-81
2022/10/25 03:04:04;;;;;;;;;;;;;;;;;;4985383;28;19917;-82
2022/10/25 03:06:30;;;;;;;;;;;;;;;;;;4969683;28;19984;-82
2022/10/25 03:08:56;;;;;;;;;;;;;;;;;;4978925;28;20461;-81
2022/10/25 03:11:23;;;;;;;;;;;;;;;;;;4983467;28;19949;-81
2022/10/25 03:13:49;;;;;;;;;;;;;;;;;;4986604;28;19949;-82
2022/10/25 03:16:15;;;;;;;;;;;;;;;;;;4989391;28;19950;-81
2022/10/25 03:18:41;;;;;;;;;;;;;;;;;;4971752;28;19968;-82
2022/10/25 03:21:07;;;;;;;;;;;;;;;;;;4969204;28;20396;-82
2022/10/25 03:23:33;;;;;;;;;;;;;;;;;;4988804;28;19964;-81
2022/10/25 03:26:00;;;;;;;;;;;;;;;;;;4970253;28;19918;-84
2022/10/25 03:28:26;;;;;;;;;;;;;;;;;;4956363;28;19957;-84
2022/10/25 03:30:52;;;;;;;;;;;;;;;;;;4989889;28;19969;-82
2022/10/25 03:33:18;;;;;;;;;;;;;;;;;;4977699;28;19986;-84
2022/10/25 03:35:44;;;;;;;;;;;;;;;;;;4989057;28;19957;-84
2022/10/25 03:38:11;;;;;;;;;;;;;;;;;;4986656;28;20410;-84
2022/10/25 03:40:37;;;;;;;;;;;;;;;;;;4979709;28;19965;-85
2022/10/25 03:43:03;;;;;;;;;;;;;;;;;;4981797;28;19921;-84
2022/10/25 03:45:29;;;;;;;;;;;;;;;;;;4970455;28;19949;-84
2022/10/25 03:47:55;;;;;;;;;;;;;;;;;;4987835;28;20358;-88
2022/10/25 03:50:21;;;;;;;;;;;;;;;;;;4985785;28;19952;-84
2022/10/25 03:52:48;;;;;;;;;;;;;;;;;;4988670;28;20336;-84
2022/10/25 03:55:14;;;;;;;;;;;;;;;;;;4992910;28;19962;-84
2022/10/25 03:57:40;;;;;;;;;;;;;;;;;;4986466;28;19953;-84
2022/10/25 04:00:06;;;;;;;;;;;;;;;;;;4995253;28;19960;-83
2022/10/25 04:02:32;;;;;;;;;;;;;;;;;;4985508;28;19979;-82
2022/10/25 04:04:59;;;;;;;;;;;;;;;;;;4987337;28;20036;-82
2022/10/25 04:07:25;;;;;;;;;;;;;;;;;;4973607;28;20354;-78
2022/10/25 04:09:51;;;;;;;;;;;;;;;;;;4969260;28;19953;-78
2022/10/25 04:12:17;;;;;;;;;;;;;;;;;;4973788;28;19976;-78
2022/10/25 04:14:43;;;;;;;;;;;;;;;;;;4989387;28;19960;-77
2022/10/25 04:17:09;;;;;;;;;;;;;;;;;;4967830;28;19949;-78
2022/10/25 04:19:36;;;;;;;;;;;;;;;;;;4971400;28;19968;-79
2022/10/25 04:22:02;;;;;;;;;;;;;;;;;;4949959;28;19953;-80
2022/10/25 04:24:28;;;;;;;;;;;;;;;;;;4985188;28;19953;-78
2022/10/25 04:26:54;;;;;;;;;;;;;;;;;;4986986;28;19922;-78
2022/10/25 04:29:20;;;;;;;;;;;;;;;;;;4986710;28;19957;-78
2022/10/25 04:31:49;;;;;;;;;;;;;;;;;;4985398;28;20297;-78
2022/10/25 04:34:15;;;;;;;;;;;;;;;;;;4985872;28;20358;-79
2022/10/25 04:36:41;;;;;;;;;;;;;;;;;;4984415;28;19957;-78
2022/10/25 04:39:07;;;;;;;;;;;;;;;;;;4965716;28;19918;-79
2022/10/25 04:41:34;;;;;;;;;;;;;;;;;;4985565;28;19980;-78
2022/10/25 04:44:00;;;;;;;;;;;;;;;;;;4985497;28;19956;-78
2022/10/25 04:46:26;;;;;;;;;;;;;;;;;;4951903;28;20132;-78
2022/10/25 04:48:52;;;;;;;;;;;;;;;;;;4969377;28;19984;-78
2022/10/25 04:51:18;;;;;;;;;;;;;;;;;;4986368;28;20265;-79
2022/10/25 04:53:45;;;;;;;;;;;;;;;;;;4968990;28;19972;-78
2022/10/25 04:56:11;;;;;;;;;;;;;;;;;;4993576;28;19961;-77
2022/10/25 04:58:38;;;;;;;;;;;;;;;;;;4978317;28;20033;-77
2022/10/25 05:01:04;;;;;;;;;;;;;;;;;;4983272;28;19965;-77
2022/10/25 05:03:30;;;;;;;;;;;;;;;;;;4984024;28;20440;-77
2022/10/25 05:05:56;;;;;;;;;;;;;;;;;;4958580;28;19957;-77
2022/10/25 05:08:22;;;;;;;;;;;;;;;;;;4983020;28;19953;-77
2022/10/25 05:10:48;;;;;;;;;;;;;;;;;;4983594;28;19980;-78
2022/10/25 05:13:15;;;;;;;;;;;;;;;;;;4984803;28;19968;-78
2022/10/25 05:15:41;;;;;;;;;;;;;;;;;;4988901;28;20005;-78
2022/10/25 05:18:07;;;;;;;;;;;;;;;;;;4984236;28;19960;-77
2022/10/25 05:20:33;;;;;;;;;;;;;;;;;;4994768;28;19949;-78
2022/10/25 05:22:59;;;;;;;;;;;;;;;;;;4994408;28;20044;-78
2022/10/25 05:25:26;;;;;;;;;;;;;;;;;;4969966;28;19957;-78
2022/10/25 05:27:52;;;;;;;;;;;;;;;;;;4985649;28;20037;-79
2022/10/25 05:30:18;;;;;;;;;;;;;;;;;;4953075;28;20483;-78
2022/10/25 05:32:44;;;;;;;;;;;;;;;;;;4968542;28;19944;-78
2022/10/25 05:35:10;;;;;;;;;;;;;;;;;;4984968;28;19949;-78
2022/10/25 05:37:37;;;;;;;;;;;;;;;;;;4986958;28;19985;-78
2022/10/25 05:40:03;;;;;;;;;;;;;;;;;;4975498;28;19972;-78
2022/10/25 05:42:29;;;;;;;;;;;;;;;;;;4991478;28;19980;-78
2022/10/25 05:44:55;;;;;;;;;;;;;;;;;;4953554;28;19945;-78
2022/10/25 05:47:21;;;;;;;;;;;;;;;;;;4984188;28;19926;-78
2022/10/25 05:49:47;;;;;;;;;;;;;;;;;;4986860;28;20354;-79
2022/10/25 05:52:14;;;;;;;;;;;;;;;;;;4994817;28;19926;-79
2022/10/25 05:54:40;;;;;;;;;;;;;;;;;;4983317;28;20349;-78
2022/10/25 05:57:06;;;;;;;;;;;;;;;;;;4977506;28;19957;-78
2022/10/25 05:59:32;;;;;;;;;;;;;;;;;;4976736;28;20334;-78
2022/10/25 06:01:58;;;;;;;;;;;;;;;;;;4983731;28;19961;-78
2022/10/25 06:04:25;;;;;;;;;;;;;;;;;;4969244;28;19918;-79
2022/10/25 06:06:51;;;;;;;;;;;;;;;;;;4982120;28;19957;-79
2022/10/25 06:09:18;;;;;;;;;;;;;;;;;;4986654;28;19957;-78
2022/10/25 06:11:44;;;;;;;;;;;;;;;;;;4987065;28;20443;-78
2022/10/25 06:14:10;;;;;;;;;;;;;;;;;;4983499;28;20379;-78
2022/10/25 06:16:36;;;;;;;;;;;;;;;;;;4987536;28;20432;-79
2022/10/25 06:19:02;;;;;;;;;;;;;;;;;;4995428;28;19960;-78
2022/10/25 06:21:29;;;;;;;;;;;;;;;;;;4984335;28;19988;-79
2022/10/25 06:23:55;;;;;;;;;;;;;;;;;;4986738;28;20330;-78
2022/10/25 06:26:21;;;;;;;;;;;;;;;;;;4985325;28;20327;-79
2022/10/25 06:28:47;;;;;;;;;;;;;;;;;;4970085;28;19949;-78
2022/10/25 06:31:13;;;;;;;;;;;;;;;;;;4985018;28;20362;-78
2022/10/25 06:33:40;;;;;;;;;;;;;;;;;;4964301;28;19968;-78
2022/10/25 06:36:06;;;;;;;;;;;;;;;;;;4984778;28;20440;-78
2022/10/25 06:38:32;;;;;;;;;;;;;;;;;;4986108;28;20025;-78
2022/10/25 06:40:58;;;;;;;;;;;;;;;;;;4993889;28;20060;-78
2022/10/25 06:43:24;;;;;;;;;;;;;;;;;;4988581;28;19961;-78
2022/10/25 06:45:51;;;;;;;;;;;;;;;;;;4970204;28;19981;-78
2022/10/25 06:48:17;;;;;;;;;;;;;;;;;;4970042;28;20372;-79
2022/10/25 06:50:43;;;;;;;;;;;;;;;;;;4979286;28;19957;-79
2022/10/25 06:53:09;;;;;;;;;;;;;;;;;;4983537;28;20473;-78
2022/10/25 06:55:36;;;;;;;;;;;;;;;;;;4971063;28;19993;-78
2022/10/25 06:58:02;;;;;;;;;;;;;;;;;;4988302;28;19961;-82
2022/10/25 07:00:28;;;;;;;;;;;;;;;;;;4955764;28;20298;-82
2022/10/25 07:02:54;;;;;;;;;;;;;;;;;;4954603;28;20286;-81
2022/10/25 07:05:21;;;;;;;;;;;;;;;;;;4946060;28;20920;-82
2022/10/25 07:07:47;;;;;;;;;;;;;;;;;;4972315;28;19950;-82
2022/10/25 07:10:13;;;;;;;;;;;;;;;;;;4965639;28;20024;-83
2022/10/25 07:12:40;;;;;;;;;;;;;;;;;;4958865;28;19957;-83
2022/10/25 07:15:06;;;;;;;;;;;;;;;;;;4977120;28;19945;-82
2022/10/25 07:17:32;;;;;;;;;;;;;;;;;;4989301;28;20386;-83
2022/10/25 07:19:58;;;;;;;;;;;;;;;;;;4986475;28;19949;-82
2022/10/25 07:22:24;;;;;;;;;;;;;;;;;;4966770;28;20036;-85
2022/10/25 07:24:50;;;;;;;;;;;;;;;;;;4971030;28;19984;-82
2022/10/25 07:27:17;;;;;;;;;;;;;;;;;;4971019;28;19922;-82
2022/10/25 07:29:43;;;;;;;;;;;;;;;;;;4977829;28;19965;-84
2022/10/25 07:32:09;;;;;;;;;;;;;;;;;;4971535;28;19949;-83
2022/10/25 07:34:35;;;;;;;;;;;;;;;;;;4969067;28;19949;-83
2022/10/25 07:37:01;;;;;;;;;;;;;;;;;;4970302;28;21581;-83
2022/10/25 07:39:28;;;;;;;;;;;;;;;;;;4970188;28;19961;-84
2022/10/25 07:41:54;;;;;;;;;;;;;;;;;;4977769;28;20369;-82
2022/10/25 07:44:20;;;;;;;;;;;;;;;;;;4976582;28;19944;-82
2022/10/25 07:46:47;;;;;;;;;;;;;;;;;;4954183;28;19965;-82
2022/10/25 07:49:14;;;;;;;;;;;;;;;;;;4986473;28;19957;-82
2022/10/25 07:51:40;;;;;;;;;;;;;;;;;;4964665;28;19956;-83
2022/10/25 07:54:06;;;;;;;;;;;;;;;;;;4983194;28;19974;-83
2022/10/25 07:56:32;;;;;;;;;;;;;;;;;;4984763;28;20007;-82
2022/10/25 07:58:58;;;;;;;;;;;;;;;;;;4991765;28;19957;-82
2022/10/25 08:01:25;;;;;;;;;;;;;;;;;;4969350;28;20018;-84
2022/10/25 08:03:51;;;;;;;;;;;;;;;;;;4956797;28;19972;-82
2022/10/25 08:06:17;;;;;;;;;;;;;;;;;;4968656;28;19957;-83
2022/10/25 08:08:43;;;;;;;;;;;;;;;;;;4958160;28;19957;-82
2022/10/25 08:11:09;;;;;;;;;;;;;;;;;;4968690;28;19956;-82
2022/10/25 08:13:35;;;;;;;;;;;;;;;;;;4959606;28;19949;-82
2022/10/25 08:16:02;;;;;;;;;;;;;;;;;;4986168;28;20326;-82
2022/10/25 08:18:28;;;;;;;;;;;;;;;;;;4971654;28;20296;-83
2022/10/25 08:20:54;;;;;;;;;;;;;;;;;;4969986;28;19971;-83
2022/10/25 08:23:20;;;;;;;;;;;;;;;;;;4969185;28;21184;-82
2022/10/25 08:25:47;;;;;;;;;;;;;;;;;;4986540;28;19976;-83
2022/10/25 08:28:13;;;;;;;;;;;;;;;;;;4987861;28;19918;-82
2022/10/25 08:30:39;;;;;;;;;;;;;;;;;;4969770;28;19968;-83
2022/10/25 08:33:05;;;;;;;;;;;;;;;;;;4969471;28;19988;-82
2022/10/25 08:35:32;;;;;;;;;;;;;;;;;;4954235;28;19968;-82
2022/10/25 08:37:58;;;;;;;;;;;;;;;;;;4972075;28;19957;-82
2022/10/25 08:40:24;;;;;;;;;;;;;;;;;;4986351;28;20362;-82
2022/10/25 08:42:51;;;;;;;;;;;;;;;;;;4985221;28;20037;-82
2022/10/25 08:45:17;;;;;;;;;;;;;;;;;;4968241;28;19953;-82
2022/10/25 08:47:43;;;;;;;;;;;;;;;;;;4962224;28;19964;-83
2022/10/25 08:50:09;;;;;;;;;;;;;;;;;;4969421;28;19949;-82
2022/10/25 08:52:35;;;;;;;;;;;;;;;;;;4970871;28;19918;-82
2022/10/25 08:55:02;;;;;;;;;;;;;;;;;;4959692;28;19968;-82
2022/10/25 08:57:28;;;;;;;;;;;;;;;;;;4986003;28;19964;-82
2022/10/25 08:59:54;;;;;;;;;;;;;;;;;;4972189;28;19961;-82
2022/10/25 09:02:21;;;;;;;;;;;;;;;;;;4982903;28;19930;-82
2022/10/25 09:04:47;;;;;;;;;;;;;;;;;;4986876;28;19926;-82
2022/10/25 09:07:13;;;;;;;;;;;;;;;;;;4987006;28;19928;-82
2022/10/25 09:09:39;;;;;;;;;;;;;;;;;;4985751;28;20440;-82
2022/10/25 09:12:06;;;;;;;;;;;;;;;;;;4968080;28;20029;-82
2022/10/25 09:14:32;;;;;;;;;;;;;;;;;;4987620;28;19918;-82
2022/10/25 09:16:58;;;;;;;;;;;;;;;;;;4967883;28;19976;-81
2022/10/25 09:19:24;;;;;;;;;;;;;;;;;;4987160;28;20025;-82
2022/10/25 09:21:50;;;;;;;;;;;;;;;;;;4985103;28;19957;-81
2022/10/25 09:24:17;;;;;;;;;;;;;;;;;;4983218;28;19956;-82
2022/10/25 09:26:43;;;;;;;;;;;;;;;;;;4985911;28;19960;-82
2022/10/25 09:29:09;;;;;;;;;;;;;;;;;;4984877;28;19964;-82
2022/10/25 09:31:35;;;;;;;;;;;;;;;;;;4972730;28;19918;-82
2022/10/25 09:34:01;;;;;;;;;;;;;;;;;;4961293;28;19985;-81
2022/10/25 09:36:28;;;;;;;;;;;;;;;;;;4969950;28;19964;-83
2022/10/25 09:38:54;;;;;;;;;;;;;;;;;;4985885;28;19949;-82
2022/10/25 09:41:20;;;;;;;;;;;;;;;;;;4985571;28;19921;-82
2022/10/25 09:43:46;;;;;;;;;;;;;;;;;;4968379;28;19949;-82
2022/10/25 09:46:12;;;;;;;;;;;;;;;;;;4961854;28;19913;-81
2022/10/25 09:48:38;;;;;;;;;;;;;;;;;;4961105;28;19948;-82
2022/10/25 09:51:05;;;;;;;;;;;;;;;;;;4986224;28;19968;-82
2022/10/25 09:53:31;;;;;;;;;;;;;;;;;;4968721;28;20816;-82
2022/10/25 09:55:57;;;;;;;;;;;;;;;;;;4969841;28;19968;-82
2022/10/25 09:58:23;;;;;;;;;;;;;;;;;;4978780;28;19957;-82
2022/10/25 10:00:50;;;;;;;;;;;;;;;;;;4970279;28;19968;-82
2022/10/25 10:03:16;;;;;;;;;;;;;;;;;;4969440;28;20033;-83
2022/10/25 10:05:42;;;;;;;;;;;;;;;;;;4958675;28;19949;-82
2022/10/25 10:08:08;;;;;;;;;;;;;;;;;;4983985;28;19961;-81
2022/10/25 10:10:34;;;;;;;;;;;;;;;;;;4975446;28;19918;-82
2022/10/25 10:13:01;;;;;;;;;;;;;;;;;;4972700;28;19968;-82
2022/10/25 10:15:27;;;;;;;;;;;;;;;;;;4969616;28;20465;-82
2022/10/25 10:17:53;;;;;;;;;;;;;;;;;;4972536;28;20016;-82
2022/10/25 10:20:19;;;;;;;;;;;;;;;;;;4972701;28;19973;-81
2022/10/25 10:22:46;;;;;;;;;;;;;;;;;;4972373;28;20025;-82
2022/10/25 10:25:12;;;;;;;;;;;;;;;;;;4990173;28;19918;-81
2022/10/25 10:27:38;;;;;;;;;;;;;;;;;;4973214;28;19946;-82
2022/10/25 10:30:04;;;;;;;;;;;;;;;;;;4956833;28;19929;-82
2022/10/25 10:32:30;;;;;;;;;;;;;;;;;;4990551;28;19949;-82
2022/10/25 10:34:57;;;;;;;;;;;;;;;;;;4975418;28;19953;-81
2022/10/25 10:37:23;;;;;;;;;;;;;;;;;;4980082;28;20349;-82
2022/10/25 10:39:49;;;;;;;;;;;;;;;;;;4988038;28;19994;-82
2022/10/25 10:42:15;;;;;;;;;;;;;;;;;;4990281;28;20064;-82
2022/10/25 10:44:41;;;;;;;;;;;;;;;;;;4991335;28;19968;-82
2022/10/25 10:47:08;;;;;;;;;;;;;;;;;;4974431;28;19945;-82
2022/10/25 10:49:34;;;;;;;;;;;;;;;;;;4995726;28;19945;-83
2022/10/25 10:52:01;;;;;;;;;;;;;;;;;;4974359;28;19945;-83
2022/10/25 10:54:28;;;;;;;;;;;;;;;;;;4982410;28;19949;-83
2022/10/25 10:56:54;;;;;;;;;;;;;;;;;;4959105;28;20485;-83
2022/10/25 10:59:20;;;;;;;;;;;;;;;;;;4990700;28;19957;-83
2022/10/25 11:01:46;;;;;;;;;;;;;;;;;;4992540;28;20337;-83
2022/10/25 11:04:12;;;;;;;;;;;;;;;;;;4992984;28;19953;-83
2022/10/25 11:06:38;;;;;;;;;;;;;;;;;;4973389;28;19957;-83
2022/10/25 11:09:05;;;;;;;;;;;;;;;;;;4979384;28;20425;-83
2022/10/25 11:11:31;;;;;;;;;;;;;;;;;;4996666;28;20411;-83
2022/10/25 11:13:57;;;;;;;;;;;;;;;;;;5019685;28;19944;-82
2022/10/25 11:16:23;;;;;;;;;;;;;;;;;;4991688;28;19933;-83
2022/10/25 11:18:50;;;;;;;;;;;;;;;;;;5007801;28;20288;-83
2022/10/25 11:21:16;;;;;;;;;;;;;;;;;;4975857;28;19953;-83
2022/10/25 11:23:42;;;;;;;;;;;;;;;;;;4999672;28;19925;-83
2022/10/25 11:26:08;;;;;;;;;;;;;;;;;;4990278;28;19936;-82
2022/10/25 11:28:34;;;;;;;;;;;;;;;;;;4985096;28;19983;-80
2022/10/25 11:31:01;;;;;;;;;;;;;;;;;;4992647;28;19929;-82
2022/10/25 11:33:27;;;;;;;;;;;;;;;;;;4987944;28;19945;-80
2022/10/25 11:35:54;;;;;;;;;;;;;;;;;;4987828;28;20393;-81
2022/10/25 11:38:21;;;;;;;;;;;;;;;;;;4985017;28;21389;-79
2022/10/25 11:40:47;;;;;;;;;;;;;;;;;;4955480;28;19961;-80
2022/10/25 11:43:13;;;;;;;;;;;;;;;;;;4985143;28;19922;-80
2022/10/25 11:45:40;;;;;;;;;;;;;;;;;;4988687;28;19964;-82
2022/10/25 11:48:06;;;;;;;;;;;;;;;;;;4987021;28;19960;-80
2022/10/25 11:50:32;;;;;;;;;;;;;;;;;;4993374;28;20012;-81
2022/10/25 11:52:58;;;;;;;;;;;;;;;;;;4968854;28;20626;-80
2022/10/25 11:55:24;;;;;;;;;;;;;;;;;;4983711;28;19954;-80
2022/10/25 11:57:51;;;;;;;;;;;;;;;;;;4986523;28;19976;-81
2022/10/25 12:00:17;;;;;;;;;;;;;;;;;;4952205;28;19957;-81
2022/10/25 12:02:43;;;;;;;;;;;;;;;;;;4962595;28;20025;-81
2022/10/25 12:05:09;;;;;;;;;;;;;;;;;;4968494;28;19969;-81
2022/10/25 12:07:36;;;;;;;;;;;;;;;;;;4970842;28;19956;-81
2022/10/25 12:10:02;;;;;;;;;;;;;;;;;;4965864;28;19964;-82
2022/10/25 12:12:28;;;;;;;;;;;;;;;;;;4987095;28;19959;-82
2022/10/25 12:14:55;;;;;;;;;;;;;;;;;;4987729;28;19945;-83
2022/10/25 12:17:21;;;;;;;;;;;;;;;;;;4985153;28;20345;-83
2022/10/25 12:19:47;;;;;;;;;;;;;;;;;;4977291;28;19918;-81
2022/10/25 12:22:13;;;;;;;;;;;;;;;;;;4978391;28;19969;-80
2022/10/25 12:24:39;;;;;;;;;;;;;;;;;;4971643;28;19965;-81
2022/10/25 12:27:06;;;;;;;;;;;;;;;;;;4984818;28;20044;-80
2022/10/25 12:29:32;;;;;;;;;;;;;;;;;;4963759;28;19970;-81
2022/10/25 12:31:58;;;;;;;;;;;;;;;;;;4952851;28;20029;-80
2022/10/25 12:34:24;;;;;;;;;;;;;;;;;;4964452;28;19918;-81
2022/10/25 12:36:51;;;;;;;;;;;;;;;;;;4965505;28;19961;-81
2022/10/25 12:39:17;;;;;;;;;;;;;;;;;;4965767;28;19965;-81
2022/10/25 12:41:44;;;;;;;;;;;;;;;;;;4952419;28;21168;-81
2022/10/25 12:44:10;;;;;;;;;;;;;;;;;;4949128;28;20005;-81
2022/10/25 12:46:36;;;;;;;;;;;;;;;;;;4950423;28;19922;-82
2022/10/25 12:49:02;;;;;;;;;;;;;;;;;;4949234;28;19926;-80
2022/10/25 12:51:28;;;;;;;;;;;;;;;;;;4966665;28;19933;-81
2022/10/25 12:53:55;;;;;;;;;;;;;;;;;;4968176;28;19950;-81
2022/10/25 12:56:21;;;;;;;;;;;;;;;;;;4965297;28;19961;-78
2022/10/25 12:58:47;;;;;;;;;;;;;;;;;;4965143;28;19953;-79
2022/10/25 13:01:13;;;;;;;;;;;;;;;;;;4948792;28;19968;-78
2022/10/25 13:03:39;;;;;;;;;;;;;;;;;;4965992;28;20414;-78
2022/10/25 13:06:06;;;;;;;;;;;;;;;;;;4966323;28;19918;-79
2022/10/25 13:08:32;;;;;;;;;;;;;;;;;;4949798;28;20605;-80
2022/10/25 13:10:58;;;;;;;;;;;;;;;;;;4963996;28;20628;-80
2022/10/25 13:13:24;;;;;;;;;;;;;;;;;;4964423;28;19962;-80
2022/10/25 13:15:50;;;;;;;;;;;;;;;;;;4962961;28;20028;-81
2022/10/25 13:18:17;;;;;;;;;;;;;;;;;;4946136;28;19950;-80
2022/10/25 13:20:43;;;;;;;;;;;;;;;;;;4965308;28;19941;-80
2022/10/25 13:23:10;;;;;;;;;;;;;;;;;;4947414;28;19962;-82
2022/10/25 13:25:36;;;;;;;;;;;;;;;;;;4963167;28;19953;-81
2022/10/25 13:28:02;;;;;;;;;;;;;;;;;;4963709;28;19957;-80
2022/10/25 13:30:29;;;;;;;;;;;;;;;;;;4983530;28;19929;-79
2022/10/25 13:32:55;;;;;;;;;;;;;;;;;;4964013;28;20931;-77
2022/10/25 13:35:21;;;;;;;;;;;;;;;;;;4983492;28;19953;-77
2022/10/25 13:37:47;;;;;;;;;;;;;;;;;;4983380;28;20309;-77
2022/10/25 13:40:14;;;;;;;;;;;;;;;;;;4963838;28;19961;-76
2022/10/25 13:42:40;;;;;;;;;;;;;;;;;;4968051;28;20424;-77
2022/10/25 13:45:06;;;;;;;;;;;;;;;;;;4966233;28;19921;-77
2022/10/25 13:47:32;;;;;;;;;;;;;;;;;;4980785;28;19964;-77
2022/10/25 13:49:58;;;;;;;;;;;;;;;;;;4982796;28;20642;-77
2022/10/25 13:52:24;;;;;;;;;;;;;;;;;;4951339;28;19960;-77
2022/10/25 13:54:51;;;;;;;;;;;;;;;;;;4968238;28;20345;-77
2022/10/25 13:57:17;;;;;;;;;;;;;;;;;;4981476;28;19961;-77
2022/10/25 13:59:43;;;;;;;;;;;;;;;;;;4966500;28;19956;-77
2022/10/25 14:02:09;;;;;;;;;;;;;;;;;;4978977;28;19957;-77
2022/10/25 14:04:35;;;;;;;;;;;;;;;;;;4968580;28;20362;-78
2022/10/25 14:07:02;;;;;;;;;;;;;;;;;;4981026;28;19968;-78
2022/10/25 14:09:28;;;;;;;;;;;;;;;;;;4985504;28;19992;-78
2022/10/25 14:11:54;;;;;;;;;;;;;;;;;;4981796;28;19964;-77
2022/10/25 14:14:20;;;;;;;;;;;;;;;;;;4965467;28;19949;-78
2022/10/25 14:16:46;;;;;;;;;;;;;;;;;;4951927;28;19945;-77
2022/10/25 14:19:13;;;;;;;;;;;;;;;;;;4966601;28;19972;-78
2022/10/25 14:21:39;;;;;;;;;;;;;;;;;;4966526;28;20343;-78
2022/10/25 14:24:05;;;;;;;;;;;;;;;;;;4985181;28;19989;-77
2022/10/25 14:26:31;;;;;;;;;;;;;;;;;;4987586;28;20554;-78
2022/10/25 14:28:57;;;;;;;;;;;;;;;;;;4981566;28;19981;-78
2022/10/25 14:31:24;;;;;;;;;;;;;;;;;;4979354;28;19972;-76
2022/10/25 14:33:50;;;;;;;;;;;;;;;;;;4965481;28;19953;-78
2022/10/25 14:36:16;;;;;;;;;;;;;;;;;;4980145;28;20453;-80
2022/10/25 14:38:42;;;;;;;;;;;;;;;;;;4966762;28;20479;-79
2022/10/25 14:41:09;;;;;;;;;;;;;;;;;;4965005;28;19965;-77
2022/10/25 14:43:35;;;;;;;;;;;;;;;;;;4946514;28;19965;-79
2022/10/25 14:46:01;;;;;;;;;;;;;;;;;;4981991;28;19922;-79
2022/10/25 14:48:27;;;;;;;;;;;;;;;;;;4983515;28;20383;-79
2022/10/25 14:50:53;;;;;;;;;;;;;;;;;;4966082;28;19964;-79
2022/10/25 14:53:20;;;;;;;;;;;;;;;;;;4964682;28;19945;-79
2022/10/25 14:55:46;;;;;;;;;;;;;;;;;;4965220;28;19953;-79
2022/10/25 14:58:12;;;;;;;;;;;;;;;;;;4963758;28;20311;-78
2022/10/25 15:00:40;;;;;;;;;;;;;;;;;;4963884;28;19965;-79
2022/10/25 15:03:06;;;;;;;;;;;;;;;;;;4970560;28;20004;-78
2022/10/25 15:05:33;;;;;;;;;;;;;;;;;;4970131;28;19949;-77
2022/10/25 15:07:59;;;;;;;;;;;;;;;;;;4987339;28;19953;-77
2022/10/25 15:10:25;;;;;;;;;;;;;;;;;;4987055;28;19957;-77
2022/10/25 15:12:51;;;;;;;;;;;;;;;;;;4986006;28;20436;-77
2022/10/25 15:15:17;;;;;;;;;;;;;;;;;;4988011;28;19965;-77
2022/10/25 15:17:43;;;;;;;;;;;;;;;;;;4988203;28;20090;-76
2022/10/25 15:20:10;;;;;;;;;;;;;;;;;;4968356;28;20001;-76
2022/10/25 15:22:36;;;;;;;;;;;;;;;;;;4986049;28;20022;-79
2022/10/25 15:25:02;;;;;;;;;;;;;;;;;;4984973;28;19954;-78
2022/10/25 15:27:28;;;;;;;;;;;;;;;;;;4979710;28;19945;-78
2022/10/25 15:29:54;;;;;;;;;;;;;;;;;;4987905;28;19937;-78
2022/10/25 15:32:21;;;;;;;;;;;;;;;;;;4982951;28;19957;-78
2022/10/25 15:34:47;;;;;;;;;;;;;;;;;;4954156;28;20010;-78
2022/10/25 15:37:13;;;;;;;;;;;;;;;;;;4982551;28;19953;-77
2022/10/25 15:39:39;;;;;;;;;;;;;;;;;;4987349;28;19968;-76
2022/10/25 15:42:05;;;;;;;;;;;;;;;;;;4979594;28;20601;-78
2022/10/25 15:44:32;;;;;;;;;;;;;;;;;;4968633;28;19965;-78
2022/10/25 15:46:58;;;;;;;;;;;;;;;;;;4983046;28;20009;-78
2022/10/25 15:49:24;;;;;;;;;;;;;;;;;;4986763;28;19957;-78
2022/10/25 15:51:50;;;;;;;;;;;;;;;;;;4968981;28;19988;-79
2022/10/25 15:54:16;;;;;;;;;;;;;;;;;;4987053;28;21499;-77
2022/10/25 15:56:43;;;;;;;;;;;;;;;;;;4985351;28;20005;-78
2022/10/25 15:59:10;;;;;;;;;;;;;;;;;;4985460;28;19973;-78
2022/10/25 16:01:36;;;;;;;;;;;;;;;;;;4978313;28;19950;-79
2022/10/25 16:04:02;;;;;;;;;;;;;;;;;;4985874;28;19972;-78
2022/10/25 16:06:28;;;;;;;;;;;;;;;;;;4988202;28;19961;-82
2022/10/25 16:08:54;;;;;;;;;;;;;;;;;;4968335;28;19957;-78
2022/10/25 16:11:20;;;;;;;;;;;;;;;;;;4986785;28;19980;-80
2022/10/25 16:13:47;;;;;;;;;;;;;;;;;;4942676;28;20045;-80
2022/10/25 16:16:13;;;;;;;;;;;;;;;;;;4988450;28;20045;-80
2022/10/25 16:18:39;;;;;;;;;;;;;;;;;;4972537;28;19959;-80
2022/10/25 16:21:05;;;;;;;;;;;;;;;;;;4987049;28;19952;-81
2022/10/25 16:23:31;;;;;;;;;;;;;;;;;;4969641;28;19934;-78
2022/10/25 16:25:58;;;;;;;;;;;;;;;;;;4964240;28;19960;-78
2022/10/25 16:28:24;;;;;;;;;;;;;;;;;;4967755;28;19934;-78
2022/10/25 16:30:50;;;;;;;;;;;;;;;;;;4977376;28;20632;-78
2022/10/25 16:33:16;;;;;;;;;;;;;;;;;;4951412;28;19964;-78
2022/10/25 16:35:42;;;;;;;;;;;;;;;;;;4967518;28;20341;-78
2022/10/25 16:38:09;;;;;;;;;;;;;;;;;;4953586;28;19921;-78